sensor_id;sensor_type;location;lat;lon;timestamp;P1;durP1;ratioP1;P2;durP2;ratioP2
13222;SDS011;6676;45.192;5.722;2023-03-31T00:01:27;7.42;;;3.05;;
13222;SDS011;6676;45.192;5.722;2023-03-31T00:04:23;6.95;;;4.20;;
13222;SDS011;6676;45.192;5.722;2023-03-31T00:07:03;7.45;;;3.60;;
13222;SDS011;6676;45.192;5.722;2023-03-31T00:09:55;8.65;;;3.70;;
13222;SDS011;6676;45.192;5.722;2023-03-31T00:12:50;10.98;;;3.42;;
13222;SDS011;6676;45.192;5.722;2023-03-31T00:15:42;5.67;;;3.30;;
13222;SDS011;6676;45.192;5.722;2023-03-31T00:21:21;7.05;;;3.67;;
13222;SDS011;6676;45.192;5.722;2023-03-31T00:24:13;8.70;;;3.52;;
13222;SDS011;6676;45.192;5.722;2023-03-31T00:27:05;8.38;;;3.87;;
13222;SDS011;6676;45.192;5.722;2023-03-31T00:29:58;7.97;;;3.85;;
13222;SDS011;6676;45.192;5.722;2023-03-31T00:32:50;8.83;;;3.70;;
13222;SDS011;6676;45.192;5.722;2023-03-31T00:35:41;8.43;;;4.00;;
13222;SDS011;6676;45.192;5.722;2023-03-31T00:38:33;10.68;;;3.52;;
13222;SDS011;6676;45.192;5.722;2023-03-31T00:41:25;7.22;;;3.55;;
13222;SDS011;6676;45.192;5.722;2023-03-31T00:44:18;6.72;;;3.65;;
13222;SDS011;6676;45.192;5.722;2023-03-31T00:47:12;7.12;;;3.62;;
13222;SDS011;6676;45.192;5.722;2023-03-31T00:50:12;7.20;;;3.60;;
13222;SDS011;6676;45.192;5.722;2023-03-31T00:53:07;8.68;;;3.87;;
13222;SDS011;6676;45.192;5.722;2023-03-31T00:56:03;10.35;;;4.20;;
13222;SDS011;6676;45.192;5.722;2023-03-31T00:58:55;9.05;;;3.70;;
13222;SDS011;6676;45.192;5.722;2023-03-31T01:01:53;7.58;;;3.70;;
13222;SDS011;6676;45.192;5.722;2023-03-31T01:04:49;11.97;;;3.85;;
13222;SDS011;6676;45.192;5.722;2023-03-31T01:07:45;11.60;;;3.70;;
13222;SDS011;6676;45.192;5.722;2023-03-31T01:10:40;7.67;;;3.65;;
13222;SDS011;6676;45.192;5.722;2023-03-31T01:13:34;7.22;;;3.47;;
13222;SDS011;6676;45.192;5.722;2023-03-31T01:16:28;6.90;;;3.50;;
13222;SDS011;6676;45.192;5.722;2023-03-31T01:19:23;6.60;;;2.98;;
13222;SDS011;6676;45.192;5.722;2023-03-31T01:22:36;6.62;;;3.60;;
13222;SDS011;6676;45.192;5.722;2023-03-31T01:29:15;10.60;;;3.50;;
13222;SDS011;6676;45.192;5.722;2023-03-31T01:42:42;11.00;;;3.22;;
13222;SDS011;6676;45.192;5.722;2023-03-31T01:45:40;9.90;;;3.90;;
13222;SDS011;6676;45.192;5.722;2023-03-31T01:48:40;6.30;;;3.58;;
13222;SDS011;6676;45.192;5.722;2023-03-31T01:51:34;7.65;;;3.62;;
13222;SDS011;6676;45.192;5.722;2023-03-31T01:54:29;5.65;;;3.42;;
13222;SDS011;6676;45.192;5.722;2023-03-31T01:57:26;6.85;;;3.90;;
13222;SDS011;6676;45.192;5.722;2023-03-31T02:00:22;6.97;;;3.72;;
13222;SDS011;6676;45.192;5.722;2023-03-31T02:03:17;10.55;;;4.45;;
13222;SDS011;6676;45.192;5.722;2023-03-31T02:06:11;7.65;;;3.62;;
13222;SDS011;6676;45.192;5.722;2023-03-31T02:09:08;6.62;;;3.67;;
13222;SDS011;6676;45.192;5.722;2023-03-31T02:12:01;9.60;;;3.80;;
13222;SDS011;6676;45.192;5.722;2023-03-31T02:14:56;8.68;;;3.70;;
13222;SDS011;6676;45.192;5.722;2023-03-31T02:17:50;7.22;;;3.98;;
13222;SDS011;6676;45.192;5.722;2023-03-31T02:20:46;5.35;;;3.22;;
13222;SDS011;6676;45.192;5.722;2023-03-31T02:23:39;7.78;;;4.03;;
13222;SDS011;6676;45.192;5.722;2023-03-31T02:26:33;7.80;;;4.00;;
13222;SDS011;6676;45.192;5.722;2023-03-31T02:29:14;8.28;;;4.15;;
13222;SDS011;6676;45.192;5.722;2023-03-31T02:32:08;8.63;;;3.85;;
13222;SDS011;6676;45.192;5.722;2023-03-31T02:35:01;7.47;;;4.05;;
13222;SDS011;6676;45.192;5.722;2023-03-31T02:37:53;8.13;;;3.45;;
13222;SDS011;6676;45.192;5.722;2023-03-31T02:40:46;8.25;;;3.67;;
13222;SDS011;6676;45.192;5.722;2023-03-31T02:43:37;9.15;;;3.83;;
13222;SDS011;6676;45.192;5.722;2023-03-31T02:46:29;7.72;;;3.85;;
13222;SDS011;6676;45.192;5.722;2023-03-31T02:49:22;8.63;;;3.60;;
13222;SDS011;6676;45.192;5.722;2023-03-31T02:55:37;4.92;;;3.50;;
13222;SDS011;6676;45.192;5.722;2023-03-31T02:58:46;6.20;;;4.12;;
13222;SDS011;6676;45.192;5.722;2023-03-31T03:01:58;8.85;;;3.75;;
13222;SDS011;6676;45.192;5.722;2023-03-31T03:05:04;6.05;;;3.83;;
13222;SDS011;6676;45.192;5.722;2023-03-31T03:08:14;8.73;;;3.22;;
13222;SDS011;6676;45.192;5.722;2023-03-31T03:11:06;5.03;;;2.52;;
13222;SDS011;6676;45.192;5.722;2023-03-31T03:13:52;9.93;;;4.03;;
13222;SDS011;6676;45.192;5.722;2023-03-31T03:16:47;9.08;;;3.50;;
13222;SDS011;6676;45.192;5.722;2023-03-31T03:19:41;6.22;;;3.40;;
13222;SDS011;6676;45.192;5.722;2023-03-31T03:22:33;23.62;;;10.82;;
13222;SDS011;6676;45.192;5.722;2023-03-31T03:25:24;9.50;;;4.80;;
13222;SDS011;6676;45.192;5.722;2023-03-31T03:28:17;9.15;;;4.35;;
13222;SDS011;6676;45.192;5.722;2023-03-31T03:31:09;7.45;;;3.60;;
13222;SDS011;6676;45.192;5.722;2023-03-31T03:33:55;7.25;;;3.98;;
13222;SDS011;6676;45.192;5.722;2023-03-31T03:36:47;7.45;;;3.47;;
13222;SDS011;6676;45.192;5.722;2023-03-31T03:39:39;8.25;;;3.72;;
13222;SDS011;6676;45.192;5.722;2023-03-31T03:42:31;7.70;;;3.50;;
13222;SDS011;6676;45.192;5.722;2023-03-31T03:45:23;7.35;;;3.60;;
13222;SDS011;6676;45.192;5.722;2023-03-31T03:48:15;7.45;;;3.72;;
13222;SDS011;6676;45.192;5.722;2023-03-31T03:51:06;7.10;;;3.77;;
13222;SDS011;6676;45.192;5.722;2023-03-31T03:53:58;9.95;;;3.60;;
13222;SDS011;6676;45.192;5.722;2023-03-31T03:56:50;7.42;;;3.40;;
13222;SDS011;6676;45.192;5.722;2023-03-31T03:59:41;9.10;;;3.75;;
13222;SDS011;6676;45.192;5.722;2023-03-31T04:02:33;6.00;;;3.35;;
13222;SDS011;6676;45.192;5.722;2023-03-31T04:05:25;5.97;;;3.10;;
13222;SDS011;6676;45.192;5.722;2023-03-31T04:08:17;7.28;;;3.20;;
13222;SDS011;6676;45.192;5.722;2023-03-31T04:11:11;6.12;;;3.52;;
13222;SDS011;6676;45.192;5.722;2023-03-31T04:14:09;8.13;;;3.33;;
13222;SDS011;6676;45.192;5.722;2023-03-31T04:17:02;5.90;;;3.62;;
13222;SDS011;6676;45.192;5.722;2023-03-31T04:19:55;7.20;;;3.25;;
13222;SDS011;6676;45.192;5.722;2023-03-31T04:22:51;6.92;;;3.30;;
13222;SDS011;6676;45.192;5.722;2023-03-31T04:25:42;8.78;;;3.35;;
13222;SDS011;6676;45.192;5.722;2023-03-31T04:28:37;7.97;;;3.12;;
13222;SDS011;6676;45.192;5.722;2023-03-31T04:31:30;8.93;;;3.27;;
13222;SDS011;6676;45.192;5.722;2023-03-31T04:34:27;10.30;;;3.22;;
13222;SDS011;6676;45.192;5.722;2023-03-31T04:37:23;9.38;;;3.35;;
13222;SDS011;6676;45.192;5.722;2023-03-31T04:40:15;7.40;;;3.12;;
13222;SDS011;6676;45.192;5.722;2023-03-31T04:43:07;6.22;;;2.55;;
13222;SDS011;6676;45.192;5.722;2023-03-31T04:45:59;7.92;;;2.83;;
13222;SDS011;6676;45.192;5.722;2023-03-31T04:48:52;9.65;;;3.15;;
13222;SDS011;6676;45.192;5.722;2023-03-31T04:51:43;8.33;;;4.20;;
13222;SDS011;6676;45.192;5.722;2023-03-31T04:54:35;6.95;;;2.87;;
13222;SDS011;6676;45.192;5.722;2023-03-31T04:57:26;6.85;;;2.35;;
13222;SDS011;6676;45.192;5.722;2023-03-31T05:00:19;5.55;;;2.08;;
13222;SDS011;6676;45.192;5.722;2023-03-31T05:03:11;7.28;;;2.40;;
13222;SDS011;6676;45.192;5.722;2023-03-31T05:05:58;5.45;;;1.90;;
13222;SDS011;6676;45.192;5.722;2023-03-31T05:08:51;6.42;;;2.17;;
13222;SDS011;6676;45.192;5.722;2023-03-31T05:11:42;2.52;;;1.27;;
13222;SDS011;6676;45.192;5.722;2023-03-31T05:14:33;5.53;;;1.70;;
13222;SDS011;6676;45.192;5.722;2023-03-31T05:17:24;5.95;;;2.15;;
13222;SDS011;6676;45.192;5.722;2023-03-31T05:20:16;4.87;;;1.72;;
13222;SDS011;6676;45.192;5.722;2023-03-31T05:23:10;5.92;;;1.47;;
13222;SDS011;6676;45.192;5.722;2023-03-31T05:26:04;11.35;;;1.67;;
13222;SDS011;6676;45.192;5.722;2023-03-31T05:28:59;5.25;;;1.40;;
13222;SDS011;6676;45.192;5.722;2023-03-31T05:31:51;6.10;;;2.22;;
13222;SDS011;6676;45.192;5.722;2023-03-31T05:34:42;10.98;;;1.72;;
13222;SDS011;6676;45.192;5.722;2023-03-31T05:37:34;6.75;;;1.90;;
13222;SDS011;6676;45.192;5.722;2023-03-31T05:40:26;6.33;;;1.80;;
13222;SDS011;6676;45.192;5.722;2023-03-31T05:43:18;5.95;;;1.70;;
13222;SDS011;6676;45.192;5.722;2023-03-31T05:46:09;5.17;;;1.90;;
13222;SDS011;6676;45.192;5.722;2023-03-31T05:49:01;5.37;;;1.60;;
13222;SDS011;6676;45.192;5.722;2023-03-31T05:51:53;7.60;;;2.47;;
13222;SDS011;6676;45.192;5.722;2023-03-31T05:54:45;5.92;;;1.80;;
13222;SDS011;6676;45.192;5.722;2023-03-31T06:00:16;5.72;;;2.10;;
13222;SDS011;6676;45.192;5.722;2023-03-31T06:03:07;5.28;;;2.00;;
13222;SDS011;6676;45.192;5.722;2023-03-31T06:05:59;8.75;;;1.87;;
13222;SDS011;6676;45.192;5.722;2023-03-31T06:08:50;7.70;;;2.20;;
13222;SDS011;6676;45.192;5.722;2023-03-31T06:11:41;10.35;;;2.37;;
13222;SDS011;6676;45.192;5.722;2023-03-31T06:14:33;9.15;;;2.02;;
13222;SDS011;6676;45.192;5.722;2023-03-31T06:17:24;6.62;;;1.80;;
13222;SDS011;6676;45.192;5.722;2023-03-31T06:20:16;7.45;;;2.02;;
13222;SDS011;6676;45.192;5.722;2023-03-31T06:23:09;11.22;;;2.08;;
13222;SDS011;6676;45.192;5.722;2023-03-31T06:26:01;6.72;;;2.20;;
13222;SDS011;6676;45.192;5.722;2023-03-31T06:28:53;6.47;;;2.08;;
13222;SDS011;6676;45.192;5.722;2023-03-31T06:31:45;8.93;;;2.10;;
13222;SDS011;6676;45.192;5.722;2023-03-31T06:34:36;6.97;;;2.27;;
13222;SDS011;6676;45.192;5.722;2023-03-31T06:37:27;8.80;;;2.83;;
13222;SDS011;6676;45.192;5.722;2023-03-31T06:40:19;8.35;;;2.10;;
13222;SDS011;6676;45.192;5.722;2023-03-31T06:43:27;9.43;;;2.35;;
13222;SDS011;6676;45.192;5.722;2023-03-31T06:47:12;5.65;;;2.00;;
13222;SDS011;6676;45.192;5.722;2023-03-31T06:50:05;12.07;;;2.67;;
13222;SDS011;6676;45.192;5.722;2023-03-31T06:53:30;13.05;;;2.58;;
13222;SDS011;6676;45.192;5.722;2023-03-31T06:56:37;6.83;;;2.00;;
13222;SDS011;6676;45.192;5.722;2023-03-31T06:59:35;9.15;;;2.20;;
13222;SDS011;6676;45.192;5.722;2023-03-31T07:06:24;8.10;;;2.58;;
13222;SDS011;6676;45.192;5.722;2023-03-31T07:09:15;10.40;;;2.52;;
13222;SDS011;6676;45.192;5.722;2023-03-31T07:12:08;11.48;;;2.92;;
13222;SDS011;6676;45.192;5.722;2023-03-31T07:14:59;6.42;;;2.40;;
13222;SDS011;6676;45.192;5.722;2023-03-31T07:17:52;9.35;;;2.62;;
13222;SDS011;6676;45.192;5.722;2023-03-31T07:20:48;11.63;;;2.60;;
13222;SDS011;6676;45.192;5.722;2023-03-31T07:23:39;7.35;;;3.05;;
13222;SDS011;6676;45.192;5.722;2023-03-31T07:26:30;8.90;;;3.05;;
13222;SDS011;6676;45.192;5.722;2023-03-31T07:29:22;12.00;;;3.10;;
13222;SDS011;6676;45.192;5.722;2023-03-31T07:32:14;8.55;;;2.77;;
13222;SDS011;6676;45.192;5.722;2023-03-31T07:35:06;9.75;;;3.47;;
13222;SDS011;6676;45.192;5.722;2023-03-31T07:37:59;10.72;;;3.55;;
13222;SDS011;6676;45.192;5.722;2023-03-31T07:40:51;7.67;;;3.33;;
13222;SDS011;6676;45.192;5.722;2023-03-31T07:43:44;10.55;;;4.40;;
13222;SDS011;6676;45.192;5.722;2023-03-31T07:46:35;9.98;;;4.00;;
13222;SDS011;6676;45.192;5.722;2023-03-31T07:49:26;8.65;;;4.60;;
13222;SDS011;6676;45.192;5.722;2023-03-31T07:52:18;11.20;;;5.15;;
13222;SDS011;6676;45.192;5.722;2023-03-31T07:55:09;12.30;;;5.17;;
13222;SDS011;6676;45.192;5.722;2023-03-31T07:58:03;15.83;;;4.67;;
13222;SDS011;6676;45.192;5.722;2023-03-31T08:00:44;11.05;;;5.00;;
13222;SDS011;6676;45.192;5.722;2023-03-31T08:03:35;8.23;;;4.45;;
13222;SDS011;6676;45.192;5.722;2023-03-31T08:06:27;15.68;;;6.03;;
13222;SDS011;6676;45.192;5.722;2023-03-31T08:09:18;11.97;;;5.25;;
13222;SDS011;6676;45.192;5.722;2023-03-31T08:12:10;12.18;;;5.90;;
13222;SDS011;6676;45.192;5.722;2023-03-31T08:15:03;11.20;;;6.55;;
13222;SDS011;6676;45.192;5.722;2023-03-31T08:17:56;10.85;;;5.60;;
13222;SDS011;6676;45.192;5.722;2023-03-31T08:20:47;9.78;;;5.47;;
13222;SDS011;6676;45.192;5.722;2023-03-31T08:23:40;10.10;;;6.45;;
13222;SDS011;6676;45.192;5.722;2023-03-31T08:26:31;10.55;;;6.00;;
13222;SDS011;6676;45.192;5.722;2023-03-31T08:29:22;13.30;;;6.97;;
13222;SDS011;6676;45.192;5.722;2023-03-31T08:32:14;7.92;;;4.75;;
13222;SDS011;6676;45.192;5.722;2023-03-31T08:35:07;9.15;;;6.37;;
13222;SDS011;6676;45.192;5.722;2023-03-31T08:37:58;10.95;;;6.55;;
13222;SDS011;6676;45.192;5.722;2023-03-31T08:40:50;8.80;;;5.47;;
13222;SDS011;6676;45.192;5.722;2023-03-31T08:43:43;12.05;;;6.75;;
13222;SDS011;6676;45.192;5.722;2023-03-31T08:46:36;7.53;;;5.45;;
13222;SDS011;6676;45.192;5.722;2023-03-31T08:49:30;9.03;;;5.28;;
13222;SDS011;6676;45.192;5.722;2023-03-31T08:52:25;9.75;;;5.70;;
13222;SDS011;6676;45.192;5.722;2023-03-31T08:55:21;9.53;;;5.97;;
13222;SDS011;6676;45.192;5.722;2023-03-31T08:58:16;10.63;;;5.95;;
13222;SDS011;6676;45.192;5.722;2023-03-31T09:01:12;12.13;;;5.97;;
13222;SDS011;6676;45.192;5.722;2023-03-31T09:04:13;11.25;;;6.47;;
13222;SDS011;6676;45.192;5.722;2023-03-31T09:07:09;11.43;;;6.60;;
13222;SDS011;6676;45.192;5.722;2023-03-31T09:09:50;11.03;;;6.58;;
13222;SDS011;6676;45.192;5.722;2023-03-31T09:12:47;12.63;;;7.37;;
13222;SDS011;6676;45.192;5.722;2023-03-31T09:15:41;14.35;;;7.60;;
13222;SDS011;6676;45.192;5.722;2023-03-31T09:18:35;12.20;;;6.72;;
13222;SDS011;6676;45.192;5.722;2023-03-31T09:21:29;10.30;;;6.58;;
13222;SDS011;6676;45.192;5.722;2023-03-31T09:24:24;11.95;;;7.08;;
13222;SDS011;6676;45.192;5.722;2023-03-31T09:27:19;11.15;;;7.55;;
13222;SDS011;6676;45.192;5.722;2023-03-31T09:30:13;12.40;;;7.40;;
13222;SDS011;6676;45.192;5.722;2023-03-31T09:33:09;12.70;;;8.08;;
13222;SDS011;6676;45.192;5.722;2023-03-31T09:36:07;13.93;;;7.87;;
13222;SDS011;6676;45.192;5.722;2023-03-31T09:39:01;12.68;;;8.13;;
13222;SDS011;6676;45.192;5.722;2023-03-31T09:41:53;11.05;;;7.70;;
13222;SDS011;6676;45.192;5.722;2023-03-31T09:44:45;10.48;;;8.18;;
13222;SDS011;6676;45.192;5.722;2023-03-31T09:47:38;11.48;;;8.50;;
13222;SDS011;6676;45.192;5.722;2023-03-31T09:50:32;14.28;;;8.28;;
13222;SDS011;6676;45.192;5.722;2023-03-31T09:53:28;12.80;;;8.58;;
13222;SDS011;6676;45.192;5.722;2023-03-31T09:56:36;14.75;;;8.63;;
13222;SDS011;6676;45.192;5.722;2023-03-31T09:59:38;11.45;;;8.13;;
13222;SDS011;6676;45.192;5.722;2023-03-31T10:02:35;13.70;;;8.98;;
13222;SDS011;6676;45.192;5.722;2023-03-31T10:05:29;13.28;;;7.30;;
13222;SDS011;6676;45.192;5.722;2023-03-31T10:08:25;14.30;;;9.08;;
13222;SDS011;6676;45.192;5.722;2023-03-31T10:11:19;15.20;;;8.53;;
13222;SDS011;6676;45.192;5.722;2023-03-31T10:14:12;13.55;;;8.25;;
13222;SDS011;6676;45.192;5.722;2023-03-31T10:17:04;10.60;;;7.55;;
13222;SDS011;6676;45.192;5.722;2023-03-31T10:19:56;12.37;;;7.53;;
13222;SDS011;6676;45.192;5.722;2023-03-31T10:22:48;13.28;;;8.33;;
13222;SDS011;6676;45.192;5.722;2023-03-31T10:25:41;13.03;;;8.03;;
13222;SDS011;6676;45.192;5.722;2023-03-31T10:28:34;15.55;;;8.95;;
13222;SDS011;6676;45.192;5.722;2023-03-31T10:31:33;11.35;;;8.05;;
13222;SDS011;6676;45.192;5.722;2023-03-31T10:34:13;11.78;;;8.40;;
13222;SDS011;6676;45.192;5.722;2023-03-31T10:37:05;12.80;;;7.62;;
13222;SDS011;6676;45.192;5.722;2023-03-31T10:39:58;12.18;;;7.42;;
13222;SDS011;6676;45.192;5.722;2023-03-31T10:42:58;12.78;;;6.87;;
13222;SDS011;6676;45.192;5.722;2023-03-31T10:45:53;11.93;;;6.67;;
13222;SDS011;6676;45.192;5.722;2023-03-31T10:48:47;8.55;;;5.95;;
13222;SDS011;6676;45.192;5.722;2023-03-31T10:51:39;9.90;;;6.15;;
13222;SDS011;6676;45.192;5.722;2023-03-31T10:54:38;8.63;;;5.90;;
13222;SDS011;6676;45.192;5.722;2023-03-31T11:00:28;10.08;;;5.78;;
13222;SDS011;6676;45.192;5.722;2023-03-31T11:06:34;9.13;;;5.50;;
13222;SDS011;6676;45.192;5.722;2023-03-31T11:09:32;6.07;;;4.80;;
13222;SDS011;6676;45.192;5.722;2023-03-31T11:12:29;10.35;;;5.45;;
13222;SDS011;6676;45.192;5.722;2023-03-31T11:15:23;7.47;;;5.28;;
13222;SDS011;6676;45.192;5.722;2023-03-31T11:18:21;7.12;;;4.70;;
13222;SDS011;6676;45.192;5.722;2023-03-31T11:21:36;5.90;;;4.90;;
13222;SDS011;6676;45.192;5.722;2023-03-31T11:24:41;7.10;;;5.17;;
13222;SDS011;6676;45.192;5.722;2023-03-31T11:27:49;7.95;;;5.12;;
13222;SDS011;6676;45.192;5.722;2023-03-31T11:31:05;7.92;;;4.83;;
13222;SDS011;6676;45.192;5.722;2023-03-31T11:34:12;9.18;;;4.92;;
13222;SDS011;6676;45.192;5.722;2023-03-31T11:37:17;6.60;;;4.65;;
13222;SDS011;6676;45.192;5.722;2023-03-31T11:40:19;6.72;;;4.65;;
13222;SDS011;6676;45.192;5.722;2023-03-31T11:43:16;7.75;;;5.05;;
13222;SDS011;6676;45.192;5.722;2023-03-31T11:46:10;8.18;;;4.75;;
13222;SDS011;6676;45.192;5.722;2023-03-31T11:49:05;7.78;;;4.87;;
13222;SDS011;6676;45.192;5.722;2023-03-31T11:52:01;8.18;;;4.33;;
13222;SDS011;6676;45.192;5.722;2023-03-31T11:54:54;7.03;;;4.72;;
13222;SDS011;6676;45.192;5.722;2023-03-31T11:57:51;8.45;;;4.95;;
13222;SDS011;6676;45.192;5.722;2023-03-31T12:00:46;5.42;;;4.30;;
13222;SDS011;6676;45.192;5.722;2023-03-31T12:03:42;5.58;;;3.80;;
13222;SDS011;6676;45.192;5.722;2023-03-31T12:06:38;7.85;;;4.00;;
13222;SDS011;6676;45.192;5.722;2023-03-31T12:09:34;4.58;;;3.58;;
13222;SDS011;6676;45.192;5.722;2023-03-31T12:12:28;5.40;;;3.70;;
13222;SDS011;6676;45.192;5.722;2023-03-31T12:15:23;7.37;;;3.65;;
13222;SDS011;6676;45.192;5.722;2023-03-31T12:18:18;5.58;;;3.85;;
13222;SDS011;6676;45.192;5.722;2023-03-31T12:21:12;6.22;;;3.30;;
13222;SDS011;6676;45.192;5.722;2023-03-31T12:24:11;4.72;;;2.85;;
13222;SDS011;6676;45.192;5.722;2023-03-31T12:27:04;6.53;;;3.02;;
13222;SDS011;6676;45.192;5.722;2023-03-31T12:29:58;4.60;;;3.25;;
13222;SDS011;6676;45.192;5.722;2023-03-31T12:32:52;4.85;;;3.00;;
13222;SDS011;6676;45.192;5.722;2023-03-31T12:35:49;7.08;;;3.67;;
13222;SDS011;6676;45.192;5.722;2023-03-31T12:38:52;6.03;;;3.58;;
13222;SDS011;6676;45.192;5.722;2023-03-31T12:41:54;5.35;;;3.22;;
13222;SDS011;6676;45.192;5.722;2023-03-31T12:44:48;2.95;;;2.45;;
13222;SDS011;6676;45.192;5.722;2023-03-31T12:47:35;5.12;;;3.40;;
13222;SDS011;6676;45.192;5.722;2023-03-31T12:50:48;5.42;;;3.10;;
13222;SDS011;6676;45.192;5.722;2023-03-31T12:53:47;6.37;;;3.40;;
13222;SDS011;6676;45.192;5.722;2023-03-31T13:00:14;4.42;;;3.25;;
13222;SDS011;6676;45.192;5.722;2023-03-31T13:06:52;6.83;;;3.40;;
13222;SDS011;6676;45.192;5.722;2023-03-31T13:09:48;6.25;;;3.40;;
13222;SDS011;6676;45.192;5.722;2023-03-31T13:12:42;6.08;;;3.95;;
13222;SDS011;6676;45.192;5.722;2023-03-31T13:15:49;6.03;;;3.12;;
13222;SDS011;6676;45.192;5.722;2023-03-31T13:18:42;4.20;;;3.03;;
13222;SDS011;6676;45.192;5.722;2023-03-31T13:21:52;4.97;;;3.40;;
13222;SDS011;6676;45.192;5.722;2023-03-31T13:24:44;5.10;;;3.20;;
13222;SDS011;6676;45.192;5.722;2023-03-31T13:27:36;5.65;;;3.37;;
13222;SDS011;6676;45.192;5.722;2023-03-31T13:30:44;5.28;;;3.20;;
13222;SDS011;6676;45.192;5.722;2023-03-31T13:33:44;5.30;;;3.60;;
13222;SDS011;6676;45.192;5.722;2023-03-31T13:36:51;5.33;;;3.50;;
13222;SDS011;6676;45.192;5.722;2023-03-31T13:40:06;6.12;;;3.33;;
13222;SDS011;6676;45.192;5.722;2023-03-31T13:43:26;4.87;;;3.45;;
13222;SDS011;6676;45.192;5.722;2023-03-31T13:52:55;4.22;;;2.58;;
13222;SDS011;6676;45.192;5.722;2023-03-31T13:55:57;5.97;;;3.15;;
13222;SDS011;6676;45.192;5.722;2023-03-31T13:59:14;5.47;;;3.50;;
13222;SDS011;6676;45.192;5.722;2023-03-31T14:05:28;4.47;;;3.12;;
13222;SDS011;6676;45.192;5.722;2023-03-31T14:08:26;8.00;;;3.05;;
13222;SDS011;6676;45.192;5.722;2023-03-31T14:11:22;5.33;;;2.80;;
13222;SDS011;6676;45.192;5.722;2023-03-31T14:14:16;4.92;;;2.58;;
13222;SDS011;6676;45.192;5.722;2023-03-31T14:17:21;4.60;;;2.33;;
13222;SDS011;6676;45.192;5.722;2023-03-31T14:20:27;3.40;;;2.10;;
13222;SDS011;6676;45.192;5.722;2023-03-31T14:23:28;6.28;;;2.65;;
13222;SDS011;6676;45.192;5.722;2023-03-31T14:26:36;6.47;;;2.10;;
13222;SDS011;6676;45.192;5.722;2023-03-31T14:29:35;4.72;;;2.20;;
13222;SDS011;6676;45.192;5.722;2023-03-31T14:32:29;3.62;;;1.52;;
13222;SDS011;6676;45.192;5.722;2023-03-31T14:35:27;2.75;;;1.30;;
13222;SDS011;6676;45.192;5.722;2023-03-31T14:38:20;4.00;;;1.30;;
13222;SDS011;6676;45.192;5.722;2023-03-31T14:41:16;3.05;;;1.32;;
13222;SDS011;6676;45.192;5.722;2023-03-31T14:44:11;2.67;;;1.30;;
13222;SDS011;6676;45.192;5.722;2023-03-31T14:47:05;4.60;;;1.67;;
13222;SDS011;6676;45.192;5.722;2023-03-31T14:50:03;4.60;;;1.98;;
13222;SDS011;6676;45.192;5.722;2023-03-31T14:52:57;4.90;;;1.80;;
13222;SDS011;6676;45.192;5.722;2023-03-31T14:55:48;5.87;;;2.75;;
13222;SDS011;6676;45.192;5.722;2023-03-31T14:58:44;5.33;;;1.10;;
13222;SDS011;6676;45.192;5.722;2023-03-31T15:01:39;4.90;;;2.05;;
13222;SDS011;6676;45.192;5.722;2023-03-31T15:04:38;4.60;;;1.67;;
13222;SDS011;6676;45.192;5.722;2023-03-31T15:07:26;4.65;;;1.98;;
13222;SDS011;6676;45.192;5.722;2023-03-31T15:10:19;3.55;;;1.52;;
13222;SDS011;6676;45.192;5.722;2023-03-31T15:13:11;4.90;;;1.65;;
13222;SDS011;6676;45.192;5.722;2023-03-31T15:16:19;3.02;;;1.35;;
13222;SDS011;6676;45.192;5.722;2023-03-31T15:19:19;3.17;;;1.40;;
13222;SDS011;6676;45.192;5.722;2023-03-31T15:22:01;3.80;;;1.20;;
13222;SDS011;6676;45.192;5.722;2023-03-31T15:24:54;1.87;;;0.82;;
13222;SDS011;6676;45.192;5.722;2023-03-31T15:27:45;2.90;;;0.90;;
13222;SDS011;6676;45.192;5.722;2023-03-31T15:30:40;3.85;;;1.35;;
13222;SDS011;6676;45.192;5.722;2023-03-31T15:33:35;3.58;;;1.40;;
13222;SDS011;6676;45.192;5.722;2023-03-31T15:36:30;2.50;;;0.95;;
13222;SDS011;6676;45.192;5.722;2023-03-31T15:39:22;1.98;;;1.12;;
13222;SDS011;6676;45.192;5.722;2023-03-31T15:42:15;3.25;;;1.20;;
13222;SDS011;6676;45.192;5.722;2023-03-31T15:45:25;4.12;;;1.12;;
13222;SDS011;6676;45.192;5.722;2023-03-31T15:48:28;2.95;;;1.20;;
13222;SDS011;6676;45.192;5.722;2023-03-31T15:51:24;1.75;;;1.00;;
13222;SDS011;6676;45.192;5.722;2023-03-31T15:54:27;3.07;;;1.13;;
13222;SDS011;6676;45.192;5.722;2023-03-31T15:57:22;2.15;;;0.90;;
13222;SDS011;6676;45.192;5.722;2023-03-31T16:00:39;3.08;;;1.10;;
13222;SDS011;6676;45.192;5.722;2023-03-31T16:03:34;2.95;;;1.40;;
13222;SDS011;6676;45.192;5.722;2023-03-31T16:06:30;2.95;;;1.50;;
13222;SDS011;6676;45.192;5.722;2023-03-31T16:09:25;2.90;;;1.10;;
13222;SDS011;6676;45.192;5.722;2023-03-31T16:12:20;2.58;;;0.95;;
13222;SDS011;6676;45.192;5.722;2023-03-31T16:15:14;3.00;;;0.90;;
13222;SDS011;6676;45.192;5.722;2023-03-31T16:18:10;1.20;;;0.70;;
13222;SDS011;6676;45.192;5.722;2023-03-31T16:21:04;2.55;;;0.70;;
13222;SDS011;6676;45.192;5.722;2023-03-31T16:23:57;2.02;;;0.75;;
13222;SDS011;6676;45.192;5.722;2023-03-31T16:26:49;2.45;;;0.70;;
13222;SDS011;6676;45.192;5.722;2023-03-31T16:29:41;2.05;;;0.90;;
13222;SDS011;6676;45.192;5.722;2023-03-31T16:32:33;1.85;;;0.42;;
13222;SDS011;6676;45.192;5.722;2023-03-31T16:35:24;3.55;;;1.00;;
13222;SDS011;6676;45.192;5.722;2023-03-31T16:38:20;3.83;;;0.70;;
13222;SDS011;6676;45.192;5.722;2023-03-31T16:41:13;1.62;;;0.65;;
13222;SDS011;6676;45.192;5.722;2023-03-31T16:44:05;1.62;;;0.70;;
13222;SDS011;6676;45.192;5.722;2023-03-31T16:46:56;2.50;;;0.85;;
13222;SDS011;6676;45.192;5.722;2023-03-31T16:49:48;2.08;;;0.70;;
13222;SDS011;6676;45.192;5.722;2023-03-31T16:52:39;0.90;;;0.40;;
13222;SDS011;6676;45.192;5.722;2023-03-31T16:55:30;2.10;;;0.60;;
13222;SDS011;6676;45.192;5.722;2023-03-31T16:58:22;2.87;;;0.50;;
13222;SDS011;6676;45.192;5.722;2023-03-31T17:01:15;1.15;;;0.50;;
13222;SDS011;6676;45.192;5.722;2023-03-31T17:04:07;1.15;;;0.40;;
13222;SDS011;6676;45.192;5.722;2023-03-31T17:06:58;1.35;;;0.47;;
13222;SDS011;6676;45.192;5.722;2023-03-31T17:09:49;1.25;;;0.50;;
13222;SDS011;6676;45.192;5.722;2023-03-31T17:12:41;1.62;;;0.50;;
13222;SDS011;6676;45.192;5.722;2023-03-31T17:15:32;1.00;;;0.20;;
13222;SDS011;6676;45.192;5.722;2023-03-31T17:18:25;0.40;;;0.30;;
13222;SDS011;6676;45.192;5.722;2023-03-31T17:21:17;1.15;;;0.30;;
13222;SDS011;6676;45.192;5.722;2023-03-31T17:24:09;1.60;;;0.50;;
13222;SDS011;6676;45.192;5.722;2023-03-31T17:27:00;0.80;;;0.30;;
13222;SDS011;6676;45.192;5.722;2023-03-31T17:29:52;2.95;;;0.40;;
13222;SDS011;6676;45.192;5.722;2023-03-31T17:32:43;1.70;;;0.50;;
13222;SDS011;6676;45.192;5.722;2023-03-31T17:35:37;3.72;;;0.33;;
13222;SDS011;6676;45.192;5.722;2023-03-31T17:38:28;2.27;;;0.72;;
13222;SDS011;6676;45.192;5.722;2023-03-31T17:41:20;1.82;;;0.40;;
13222;SDS011;6676;45.192;5.722;2023-03-31T17:44:12;1.25;;;0.30;;
13222;SDS011;6676;45.192;5.722;2023-03-31T17:47:04;1.35;;;0.45;;
13222;SDS011;6676;45.192;5.722;2023-03-31T17:49:58;1.00;;;0.30;;
13222;SDS011;6676;45.192;5.722;2023-03-31T17:52:50;1.02;;;0.40;;
13222;SDS011;6676;45.192;5.722;2023-03-31T17:55:41;0.62;;;0.30;;
13222;SDS011;6676;45.192;5.722;2023-03-31T17:58:33;1.85;;;0.50;;
13222;SDS011;6676;45.192;5.722;2023-03-31T18:01:24;2.05;;;0.30;;
13222;SDS011;6676;45.192;5.722;2023-03-31T18:04:15;1.22;;;0.30;;
13222;SDS011;6676;45.192;5.722;2023-03-31T18:07:07;1.70;;;0.47;;
13222;SDS011;6676;45.192;5.722;2023-03-31T18:09:59;0.62;;;0.37;;
13222;SDS011;6676;45.192;5.722;2023-03-31T18:12:52;1.50;;;0.50;;
13222;SDS011;6676;45.192;5.722;2023-03-31T18:15:46;2.90;;;0.60;;
13222;SDS011;6676;45.192;5.722;2023-03-31T18:18:40;1.62;;;0.40;;
13222;SDS011;6676;45.192;5.722;2023-03-31T18:21:32;3.00;;;0.78;;
13222;SDS011;6676;45.192;5.722;2023-03-31T18:24:24;1.80;;;0.53;;
13222;SDS011;6676;45.192;5.722;2023-03-31T18:27:16;1.82;;;0.42;;
13222;SDS011;6676;45.192;5.722;2023-03-31T18:30:11;1.62;;;0.70;;
13222;SDS011;6676;45.192;5.722;2023-03-31T18:33:03;4.80;;;0.90;;
13222;SDS011;6676;45.192;5.722;2023-03-31T18:35:55;2.17;;;0.50;;